Time;durP1;ratioP1;P1;durP2;ratioP2;P2;SDS_P1;SDS_P2;PMS_P1;PMS_P2;Temp;Humidity;BMP_temperature;BMP_pressure;BME280_temperature;BME280_humidity;BME280_pressure;Samples;Min_cycle;Max_cycle;Signal;HPM_P1;HPM_P2
2023/05/14 00:01:28;;;;;;;5.10;3.40;;;;;;;;;;5070210;28;20036;-50
2023/05/14 00:03:54;;;;;;;5.88;3.10;;;;;;;;;;5051554;28;20036;-49
2023/05/14 00:06:20;;;;;;;5.07;3.80;;;15.30;99.90;;;;;;5072864;28;20040;-49
2023/05/14 00:08:46;;;;;;;5.55;3.72;;;15.30;99.90;;;;;;5071771;28;20020;-49
2023/05/14 00:11:11;;;;;;;4.65;3.42;;;15.30;99.90;;;;;;5073757;28;20503;-49
2023/05/14 00:13:37;;;;;;;4.75;3.83;;;15.20;99.90;;;;;;5051336;28;20045;-49
2023/05/14 00:16:03;;;;;;;4.93;2.75;;;15.20;99.90;;;;;;5070365;28;20040;-50
2023/05/14 00:18:29;;;;;;;4.70;3.78;;;15.20;99.90;;;;;;5075159;28;20041;-49
2023/05/14 00:20:54;;;;;;;6.07;4.20;;;15.20;99.90;;;;;;5066601;28;20085;-49
2023/05/14 00:23:21;;;;;;;4.80;3.22;;;15.20;99.90;;;;;;5075019;28;20476;-50
2023/05/14 00:25:47;;;;;;;3.72;2.90;;;15.20;99.90;;;;;;5075554;28;20025;-49
2023/05/14 00:28:13;;;;;;;4.50;3.25;;;15.20;99.90;;;;;;5074428;28;20039;-50
2023/05/14 00:30:38;;;;;;;6.43;3.45;;;15.20;99.90;;;;;;5053482;28;20048;-49
2023/05/14 00:33:05;;;;;;;4.40;2.55;;;15.20;99.90;;;;;;5049877;28;20036;-49
2023/05/14 00:35:34;;;;;;;3.90;2.88;;;15.30;99.90;;;;;;5051855;28;20033;-49
2023/05/14 00:38:00;;;;;;;4.03;3.53;;;15.20;99.90;;;;;;5062391;28;20490;-49
2023/05/14 00:40:27;;;;;;;4.57;3.20;;;15.10;99.90;;;;;;5018961;28;20043;-51
2023/05/14 00:42:53;;;;;;;3.97;2.90;;;15.10;99.90;;;;;;5049973;28;20063;-49
2023/05/14 00:45:19;;;;;;;5.43;3.22;;;15.00;99.90;;;;;;5060967;28;20036;-50
2023/05/14 00:47:45;;;;;;;2.97;2.35;;;15.00;99.90;;;;;;5052875;28;20031;-49
2023/05/14 00:50:13;;;;;;;3.95;2.85;;;14.90;99.90;;;;;;5049289;28;20124;-49
2023/05/14 00:52:40;;;;;;;4.03;3.00;;;;;;;;;;5048032;28;20033;-49
2023/05/14 00:55:06;;;;;;;5.38;3.00;;;;;;;;;;5050688;28;20461;-49
2023/05/14 00:57:33;;;;;;;3.20;2.65;;;;;;;;;;5036252;28;20045;-49
2023/05/14 00:59:58;;;;;;;5.22;2.70;;;14.70;99.90;;;;;;5050441;28;20033;-49
2023/05/14 01:02:25;;;;;;;4.80;3.33;;;14.90;99.90;;;;;;5067854;28;20451;-50
2023/05/14 01:04:51;;;;;;;3.40;3.08;;;14.90;99.90;;;;;;5052374;28;20037;-50
2023/05/14 01:07:25;;;;;;;2.35;2.00;;;14.90;99.90;;;;;;5053907;28;20025;-49
2023/05/14 01:10:03;;;;;;;4.30;2.75;;;14.70;99.90;;;;;;5054794;28;20026;-52
2023/05/14 01:12:35;;;;;;;4.57;2.70;;;14.80;99.90;;;;;;5051962;28;20396;-52
2023/05/14 01:15:15;;;;;;;3.33;2.28;;;14.70;99.90;;;;;;5047387;28;20059;-52
2023/05/14 01:17:45;;;;;;;3.95;2.45;;;14.70;99.90;;;;;;5050201;28;20052;-52
2023/05/14 01:20:12;;;;;;;3.58;2.60;;;;;;;;;;5053859;28;20112;-51
2023/05/14 01:22:37;;;;;;;3.08;2.78;;;14.60;99.90;;;;;;5048923;28;20067;-52
2023/05/14 01:25:05;;;;;;;3.25;2.22;;;14.70;99.90;;;;;;5066267;28;20434;-52
2023/05/14 01:27:38;;;;;;;3.90;2.85;;;14.80;99.90;;;;;;5047192;28;20431;-52
2023/05/14 01:30:22;;;;;;;4.35;2.78;;;14.80;99.90;;;;;;5068580;28;20061;-52
2023/05/14 01:32:52;;;;;;;3.15;2.60;;;14.80;99.90;;;;;;5054480;28;20060;-52
2023/05/14 01:35:21;;;;;;;4.28;3.33;;;14.70;99.90;;;;;;5068801;28;20480;-52
2023/05/14 01:37:48;;;;;;;4.50;2.22;;;14.70;99.90;;;;;;5066579;28;20080;-53
2023/05/14 01:40:15;;;;;;;6.97;3.00;;;;;;;;;;5063231;28;20497;-52
2023/05/14 01:42:41;;;;;;;6.00;2.88;;;;;;;;;;5051716;28;20031;-52
2023/05/14 01:45:08;;;;;;;4.70;2.80;;;;;;;;;;5053488;28;20121;-52
2023/05/14 01:47:34;;;;;;;3.08;2.70;;;;;;;;;;5034407;28;20032;-53
2023/05/14 01:50:00;;;;;;;4.80;2.75;;;;;;;;;;5069740;28;20112;-51
2023/05/14 01:52:26;;;;;;;3.38;2.45;;;;;;;;;;5073146;28;20101;-52
2023/05/14 01:54:52;;;;;;;2.35;2.03;;;;;;;;;;5030018;28;20123;-52
2023/05/14 01:57:18;;;;;;;3.35;2.58;;;;;;;;;;5063266;28;20048;-52
2023/05/14 01:59:44;;;;;;;4.20;2.63;;;14.50;99.90;;;;;;5073456;28;20032;-52
2023/05/14 02:02:10;;;;;;;3.60;2.33;;;14.60;99.90;;;;;;5074729;28;20387;-52
2023/05/14 02:04:35;;;;;;;3.53;2.53;;;14.50;99.90;;;;;;5058461;28;20041;-52
2023/05/14 02:07:01;;;;;;;4.15;2.65;;;14.50;99.90;;;;;;5022571;28;20078;-52
2023/05/14 02:09:27;;;;;;;3.90;2.45;;;14.50;99.90;;;;;;5061828;28;20143;-52
2023/05/14 02:11:53;;;;;;;3.90;2.53;;;14.50;99.90;;;;;;5021798;28;20045;-53
2023/05/14 02:14:18;;;;;;;2.67;2.38;;;14.60;99.90;;;;;;5050145;28;20052;-51
2023/05/14 02:16:44;;;;;;;3.17;2.35;;;14.60;99.90;;;;;;4973491;28;20484;-51
2023/05/14 02:19:10;;;;;;;2.90;2.28;;;14.50;99.90;;;;;;5042554;28;20041;-52
2023/05/14 02:21:35;;;;;;;4.82;2.65;;;14.40;99.90;;;;;;5062063;28;20036;-52
2023/05/14 02:24:01;;;;;;;5.70;2.83;;;14.40;99.90;;;;;;5052824;28;20370;-51
2023/05/14 02:26:27;;;;;;;4.82;3.30;;;14.40;99.90;;;;;;5049407;28;20511;-52
2023/05/14 02:28:52;;;;;;;3.17;2.78;;;14.50;99.90;;;;;;4977773;28;20044;-51
2023/05/14 02:31:18;;;;;;;3.75;2.50;;;14.40;99.90;;;;;;5010624;28;20041;-52
2023/05/14 02:33:44;;;;;;;4.90;3.03;;;14.30;99.90;;;;;;5058846;28;20172;-52
2023/05/14 02:36:10;;;;;;;5.45;2.92;;;14.30;99.90;;;;;;5022634;28;20028;-51
2023/05/14 02:38:36;;;;;;;2.85;2.05;;;14.30;99.90;;;;;;5041863;28;20033;-52
2023/05/14 02:41:01;;;;;;;4.18;2.63;;;14.20;99.90;;;;;;5064847;28;20036;-51
2023/05/14 02:43:27;;;;;;;3.13;2.40;;;14.30;99.90;;;;;;5071568;28;20021;-51
2023/05/14 02:45:53;;;;;;;4.70;2.88;;;14.20;99.90;;;;;;5067075;28;20044;-53
2023/05/14 02:48:18;;;;;;;3.30;2.08;;;14.30;99.90;;;;;;5075617;28;20047;-53
2023/05/14 02:50:45;;;;;;;2.92;2.47;;;14.10;99.90;;;;;;5061112;28;20044;-52
2023/05/14 02:53:11;;;;;;;3.13;2.15;;;14.10;99.90;;;;;;5059719;28;20127;-52
2023/05/14 02:55:37;;;;;;;2.65;1.98;;;14.10;99.90;;;;;;5072160;28;20111;-52
2023/05/14 02:58:03;;;;;;;3.20;2.30;;;14.00;99.90;;;;;;5054662;28;20051;-52
2023/05/14 03:00:28;;;;;;;4.30;2.22;;;14.10;99.90;;;;;;5052488;28;20094;-52
2023/05/14 03:02:54;;;;;;;3.97;2.55;;;14.00;99.90;;;;;;5071016;28;20036;-52
2023/05/14 03:05:20;;;;;;;3.47;2.38;;;14.10;99.90;;;;;;5070760;28;20025;-51
2023/05/14 03:07:46;;;;;;;4.18;2.58;;;14.00;99.90;;;;;;5059021;28;20032;-52
2023/05/14 03:10:11;;;;;;;3.45;2.42;;;14.10;99.90;;;;;;5054301;28;20041;-51
2023/05/14 03:12:37;;;;;;;3.00;2.38;;;14.10;99.90;;;;;;5071012;28;20167;-51
2023/05/14 03:15:03;;;;;;;3.03;2.40;;;14.10;99.90;;;;;;5069443;28;20068;-52
2023/05/14 03:17:29;;;;;;;3.22;2.38;;;14.10;99.90;;;;;;5051255;28;20054;-52
2023/05/14 03:19:54;;;;;;;3.55;2.65;;;14.10;99.90;;;;;;5073079;28;20383;-51
2023/05/14 03:22:20;;;;;;;3.72;2.67;;;14.20;99.90;;;;;;5069101;28;20025;-51
2023/05/14 03:24:46;;;;;;;2.13;1.98;;;14.30;99.90;;;;;;5053158;28;20553;-52
2023/05/14 03:27:12;;;;;;;3.35;2.70;;;14.10;99.90;;;;;;5066783;28;20384;-52
2023/05/14 03:29:37;;;;;;;3.58;2.20;;;14.10;99.90;;;;;;5062767;28;20052;-53
2023/05/14 03:32:04;;;;;;;5.03;2.53;;;14.10;99.90;;;;;;5070912;28;20025;-53
2023/05/14 03:34:29;;;;;;;3.15;2.38;;;14.00;99.90;;;;;;5049069;28;20498;-53
2023/05/14 03:36:55;;;;;;;2.67;1.65;;;14.00;99.90;;;;;;5070438;28;20025;-52
2023/05/14 03:39:21;;;;;;;2.33;1.77;;;13.80;99.90;;;;;;5069464;28;20055;-52
2023/05/14 03:41:47;;;;;;;2.70;2.13;;;13.80;99.90;;;;;;5075308;28;20045;-52
2023/05/14 03:44:13;;;;;;;3.58;2.45;;;13.80;99.90;;;;;;5062928;28;20429;-52
2023/05/14 03:46:39;;;;;;;2.28;1.88;;;13.80;99.90;;;;;;5074313;28;20054;-53
2023/05/14 03:49:06;;;;;;;2.88;1.85;;;13.80;99.90;;;;;;5068642;28;20120;-52
2023/05/14 03:51:32;;;;;;;4.35;2.20;;;13.70;99.90;;;;;;5074547;28;20024;-52
2023/05/14 03:53:57;;;;;;;2.75;1.95;;;13.70;99.90;;;;;;5055503;28;20037;-54
2023/05/14 03:56:24;;;;;;;6.50;2.65;;;13.70;99.90;;;;;;5075179;28;20491;-53
2023/05/14 03:58:51;;;;;;;3.50;2.35;;;13.70;99.90;;;;;;5073403;28;20044;-53
2023/05/14 04:01:17;;;;;;;3.22;2.20;;;13.80;99.90;;;;;;5072793;28;20364;-52
2023/05/14 04:03:43;;;;;;;3.45;2.03;;;13.70;99.90;;;;;;5073971;28;20032;-52
2023/05/14 04:06:09;;;;;;;3.45;1.05;;;;;;;;;;5072937;28;20028;-53
2023/05/14 04:08:35;;;;;;;3.47;2.15;;;13.50;99.90;;;;;;5072878;28;20023;-53
2023/05/14 04:11:00;;;;;;;1.38;1.27;;;13.60;99.90;;;;;;5062788;28;20119;-53
2023/05/14 04:13:26;;;;;;;4.75;2.78;;;13.60;99.90;;;;;;5071857;28;20115;-52
2023/05/14 04:15:52;;;;;;;2.38;1.65;;;13.60;99.90;;;;;;5071923;28;20064;-52
2023/05/14 04:18:17;;;;;;;2.80;2.25;;;13.50;99.90;;;;;;5073303;28;20141;-53
2023/05/14 04:20:43;;;;;;;1.92;1.42;;;13.50;99.90;;;;;;5071975;28;20089;-53
2023/05/14 04:23:09;;;;;;;3.53;2.60;;;13.50;99.90;;;;;;5072640;28;20593;-53
2023/05/14 04:25:35;;;;;;;2.42;1.88;;;13.60;99.90;;;;;;5076091;28;20052;-54
2023/05/14 04:28:01;;;;;;;2.95;2.05;;;13.60;99.90;;;;;;5069832;28;20048;-54
2023/05/14 04:30:27;;;;;;;2.85;2.00;;;13.60;99.90;;;;;;5063305;28;20040;-52
2023/05/14 04:32:52;;;;;;;1.92;1.63;;;13.60;99.90;;;;;;5075652;28;20460;-53
2023/05/14 04:35:19;;;;;;;3.25;2.25;;;13.60;99.90;;;;;;5072066;28;20492;-53
2023/05/14 04:37:45;;;;;;;2.05;1.60;;;13.50;99.90;;;;;;5073115;28;20056;-53
2023/05/14 04:40:11;;;;;;;3.00;2.15;;;13.50;99.90;;;;;;5061825;28;20036;-54
2023/05/14 04:42:37;;;;;;;2.10;1.88;;;13.50;99.90;;;;;;5027558;28;20480;-53
2023/05/14 04:45:05;;;;;;;1.77;1.35;;;13.50;99.90;;;;;;5071477;28;20024;-53
2023/05/14 04:47:31;;;;;;;1.63;1.52;;;13.50;99.90;;;;;;5039056;28;20081;-54
2023/05/14 04:49:56;;;;;;;2.33;2.08;;;13.40;99.90;;;;;;5073425;28;20036;-54
2023/05/14 04:52:23;;;;;;;2.60;1.88;;;13.40;99.90;;;;;;5056852;28;20044;-53
2023/05/14 04:54:48;;;;;;;4.55;2.20;;;13.50;99.90;;;;;;5050906;28;20048;-53
2023/05/14 04:57:14;;;;;;;2.80;1.67;;;13.50;99.90;;;;;;5070567;28;20028;-53
2023/05/14 04:59:40;;;;;;;2.90;2.45;;;13.50;99.90;;;;;;5072927;28;20153;-53
2023/05/14 05:02:06;;;;;;;4.95;2.08;;;13.50;99.90;;;;;;5034560;28;20151;-54
2023/05/14 05:04:32;;;;;;;3.28;2.20;;;13.50;99.90;;;;;;5051670;28;20447;-53
2023/05/14 05:06:58;;;;;;;3.00;2.28;;;13.50;99.90;;;;;;5070983;28;20115;-53
2023/05/14 05:09:24;;;;;;;3.58;2.50;;;13.50;99.90;;;;;;5073331;28;20384;-52
2023/05/14 05:11:49;;;;;;;4.72;2.50;;;13.50;99.90;;;;;;5072916;28;20473;-53
2023/05/14 05:14:15;;;;;;;2.88;1.80;;;13.60;99.90;;;;;;5054181;28;20111;-53
2023/05/14 05:16:41;;;;;;;2.75;1.77;;;13.50;99.90;;;;;;5073011;28;20583;-52
2023/05/14 05:19:07;;;;;;;4.28;2.20;;;13.50;99.90;;;;;;5035757;28;20051;-54
2023/05/14 05:21:33;;;;;;;4.57;2.35;;;13.40;99.90;;;;;;5073711;28;20464;-54
2023/05/14 05:23:59;;;;;;;3.30;2.00;;;13.60;99.90;;;;;;5071692;28;20045;-53
2023/05/14 05:26:26;;;;;;;2.95;2.15;;;13.60;99.90;;;;;;5062907;28;20037;-54
2023/05/14 05:28:51;;;;;;;2.05;1.77;;;13.60;99.90;;;;;;5073858;28;20027;-53
2023/05/14 05:31:17;;;;;;;2.80;2.20;;;13.50;99.90;;;;;;5073066;28;20032;-52
2023/05/14 05:33:43;;;;;;;3.80;2.47;;;13.50;99.90;;;;;;5072369;28;20460;-53
2023/05/14 05:36:09;;;;;;;1.33;1.23;;;13.50;99.90;;;;;;5071803;28;20511;-52
2023/05/14 05:38:34;;;;;;;3.00;2.30;;;13.50;99.90;;;;;;5021168;28;20048;-53
2023/05/14 05:41:00;;;;;;;2.30;1.75;;;13.60;99.90;;;;;;5042182;28;20028;-52
2023/05/14 05:43:27;;;;;;;4.03;2.88;;;13.40;99.90;;;;;;5068474;28;20379;-53
2023/05/14 05:45:53;;;;;;;3.22;2.25;;;13.50;99.90;;;;;;5068744;28;20466;-53
2023/05/14 05:48:19;;;;;;;1.88;1.58;;;13.60;99.90;;;;;;5072156;28;20060;-53
2023/05/14 05:50:47;;;;;;;2.80;1.25;;;13.60;99.90;;;;;;5073733;28;20024;-54
2023/05/14 05:53:15;;;;;;;3.67;2.28;;;13.50;99.90;;;;;;5054510;28;20509;-52
2023/05/14 05:55:41;;;;;;;3.63;2.85;;;13.60;99.90;;;;;;5072097;28;20028;-53
2023/05/14 05:58:07;;;;;;;3.55;2.65;;;13.70;99.90;;;;;;5072448;28;20396;-52
2023/05/14 06:00:33;;;;;;;3.63;2.70;;;13.70;99.90;;;;;;5069413;28;20028;-52
2023/05/14 06:02:59;;;;;;;2.60;1.90;;;13.80;99.90;;;;;;5073892;28;20024;-53
2023/05/14 06:05:25;;;;;;;3.47;2.85;;;13.60;99.90;;;;;;5070925;28;20020;-53
2023/05/14 06:07:52;;;;;;;4.72;2.88;;;13.70;99.90;;;;;;5071231;28;20025;-53
2023/05/14 06:10:18;;;;;;;3.55;2.67;;;13.70;99.90;;;;;;5072718;28;20053;-53
2023/05/14 06:12:44;;;;;;;5.00;3.08;;;13.70;99.90;;;;;;5070935;28;20028;-53
2023/05/14 06:15:11;;;;;;;3.92;1.80;;;13.80;99.90;;;;;;5068893;28;20039;-52
2023/05/14 06:17:37;;;;;;;1.23;1.00;;;13.70;99.90;;;;;;5083354;28;20052;-53
2023/05/14 06:20:06;;;;;;;4.30;2.95;;;13.60;99.90;;;;;;5072606;28;20025;-53
2023/05/14 06:22:32;;;;;;;2.83;2.10;;;13.70;99.90;;;;;;5066095;28;20028;-51
2023/05/14 06:24:58;;;;;;;5.63;2.85;;;13.70;99.90;;;;;;5073282;28;20040;-54
2023/05/14 06:27:24;;;;;;;3.47;2.45;;;13.70;99.90;;;;;;5068018;28;20028;-52
2023/05/14 06:29:50;;;;;;;5.72;1.65;;;13.70;99.90;;;;;;5067810;28;20040;-52
2023/05/14 06:32:16;;;;;;;3.65;2.30;;;13.60;99.90;;;;;;5070963;28;20029;-53
2023/05/14 06:34:42;;;;;;;4.07;2.33;;;13.80;99.90;;;;;;5070736;28;20032;-53
2023/05/14 06:37:08;;;;;;;1.58;1.48;;;13.70;99.90;;;;;;5068686;28;20119;-52
2023/05/14 06:39:35;;;;;;;5.15;1.75;;;13.60;99.90;;;;;;5069769;28;20060;-54
2023/05/14 06:42:01;;;;;;;3.75;2.55;;;13.60;99.90;;;;;;5070391;28;20028;-53
2023/05/14 06:44:27;;;;;;;1.80;1.38;;;13.90;99.90;;;;;;5072665;28;20033;-53
2023/05/14 06:46:52;;;;;;;2.90;2.05;;;13.70;99.90;;;;;;5056414;28;20060;-52
2023/05/14 06:49:18;;;;;;;3.78;2.33;;;13.80;99.90;;;;;;5039087;28;20041;-53
2023/05/14 06:51:44;;;;;;;3.72;1.60;;;13.80;99.90;;;;;;5053211;28;20040;-53
2023/05/14 06:54:10;;;;;;;3.30;1.65;;;13.90;99.90;;;;;;5069004;28;20499;-53
2023/05/14 06:56:36;;;;;;;3.03;2.30;;;;;;;;;;5070249;28;20021;-53
2023/05/14 06:59:02;;;;;;;4.43;2.40;;;;;;;;;;5069402;28;20039;-54
2023/05/14 07:01:29;;;;;;;2.78;1.55;;;;;;;;;;5063702;28;20089;-52
2023/05/14 07:03:55;;;;;;;3.65;2.80;;;;;;;;;;5068078;28;20040;-54
2023/05/14 07:06:22;;;;;;;7.05;2.60;;;;;;;;;;5070810;28;20024;-52
2023/05/14 07:08:48;;;;;;;3.20;2.13;;;;;;;;;;5069041;28;20016;-53
2023/05/14 07:11:14;;;;;;;5.60;2.97;;;;;;;;;;5051946;28;20496;-54
2023/05/14 07:13:40;;;;;;;3.78;2.72;;;;;;;;;;5057858;28;20033;-54
2023/05/14 07:16:10;;;;;;;2.53;1.58;;;;;;;;;;5065052;28;20090;-54
2023/05/14 07:18:36;;;;;;;2.15;1.98;;;;;;;;;;5064831;28;20032;-53
2023/05/14 07:21:05;;;;;;;5.55;3.25;;;;;;;;;;5077236;28;20051;-55
2023/05/14 07:23:32;;;;;;;3.97;2.55;;;;;;;;;;5074224;28;20020;-54
2023/05/14 07:25:58;;;;;;;2.38;2.17;;;;;;;;;;5071525;28;20438;-53
2023/05/14 07:28:24;;;;;;;2.38;2.13;;;;;;;;;;5073279;28;20108;-53
2023/05/14 07:30:50;;;;;;;1.95;1.52;;;;;;;;;;5058266;28;20094;-53
2023/05/14 07:33:16;;;;;;;1.20;1.05;;;;;;;;;;5073481;28;20071;-53
2023/05/14 07:35:42;;;;;;;3.63;2.60;;;;;;;;;;5076124;28;20530;-54
2023/05/14 07:38:09;;;;;;;1.67;1.58;;;;;;;;;;5072129;28;20036;-53
2023/05/14 07:40:35;;;;;;;5.97;2.42;;;;;;;;;;5074078;28;20036;-53
2023/05/14 07:43:01;;;;;;;4.47;2.80;;;;;;;;;;5063885;28;20063;-53
2023/05/14 07:45:27;;;;;;;2.20;1.92;;;;;;;;;;5045510;28;20389;-52
2023/05/14 07:47:52;;;;;;;2.35;2.03;;;13.90;99.90;;;;;;5073958;28;20024;-53
2023/05/14 07:50:18;;;;;;;3.65;2.38;;;14.10;99.90;;;;;;5076396;28;20032;-53
2023/05/14 07:52:44;;;;;;;4.25;2.03;;;14.00;99.90;;;;;;5073340;28;20060;-52
2023/05/14 07:55:11;;;;;;;1.25;1.05;;;14.00;99.90;;;;;;5071674;28;20029;-54
2023/05/14 07:57:37;;;;;;;1.30;1.02;;;13.80;99.90;;;;;;5060044;28;20057;-53
2023/05/14 08:00:06;;;;;;;3.85;2.33;;;13.80;99.90;;;;;;5055816;28;20123;-54
2023/05/14 08:02:32;;;;;;;1.83;1.30;;;14.00;99.90;;;;;;5044588;28;20115;-53
2023/05/14 08:04:58;;;;;;;3.03;2.40;;;13.70;99.90;;;;;;5075455;28;20135;-52
2023/05/14 08:07:24;;;;;;;1.17;1.02;;;14.00;99.90;;;;;;5079875;28;20023;-54
2023/05/14 08:09:50;;;;;;;2.50;2.10;;;13.90;99.90;;;;;;5066043;28;20043;-52
2023/05/14 08:12:15;;;;;;;4.53;2.55;;;14.20;99.90;;;;;;5063370;28;20124;-52
2023/05/14 08:14:41;;;;;;;3.08;2.40;;;14.50;99.90;;;;;;5073379;28;20036;-54
2023/05/14 08:17:07;;;;;;;4.72;2.75;;;14.50;99.90;;;;;;5059489;28;20137;-53
2023/05/14 08:19:33;;;;;;;2.65;1.98;;;14.50;99.90;;;;;;5039098;28;20029;-54
2023/05/14 08:21:58;;;;;;;3.67;2.60;;;14.60;99.90;;;;;;5063747;28;20484;-53
2023/05/14 08:24:24;;;;;;;3.83;2.25;;;14.70;99.90;;;;;;5073101;28;20033;-55
2023/05/14 08:26:51;;;;;;;3.38;2.47;;;14.60;99.90;;;;;;5051946;28;20391;-52
2023/05/14 08:29:16;;;;;;;2.88;2.40;;;14.50;99.90;;;;;;5071874;28;20058;-54
2023/05/14 08:31:42;;;;;;;1.38;1.10;;;14.70;99.90;;;;;;5072559;28;20028;-53
2023/05/14 08:34:08;;;;;;;1.40;1.30;;;14.70;99.90;;;;;;5073380;28;20028;-52
2023/05/14 08:36:34;;;;;;;1.95;1.35;;;14.60;99.90;;;;;;5061032;28;20086;-52
2023/05/14 08:39:00;;;;;;;4.03;2.30;;;14.50;99.90;;;;;;5059957;28;20053;-53
2023/05/14 08:41:25;;;;;;;3.35;2.08;;;14.50;99.90;;;;;;5047941;28;20041;-52
2023/05/14 08:43:57;;;;;;;2.35;1.85;;;14.50;99.90;;;;;;5075358;28;20392;-52
2023/05/14 08:46:23;;;;;;;;;;;14.70;99.90;;;;;;5071300;28;20047;-53
2023/05/14 08:48:59;;;;;;;4.07;2.72;;;;;;;;;;5069680;28;19916;-53
2023/05/14 08:51:26;;;;;;;2.20;1.90;;;15.00;99.90;;;;;;5070586;28;20024;-53
2023/05/14 08:53:52;;;;;;;4.28;2.75;;;14.90;99.90;;;;;;5075088;28;20435;-53
2023/05/14 08:56:18;;;;;;;1.15;1.05;;;15.10;99.90;;;;;;5071268;28;20044;-54
2023/05/14 08:58:44;;;;;;;4.13;2.20;;;15.20;99.90;;;;;;5071737;28;20044;-53
2023/05/14 09:01:10;;;;;;;4.20;2.92;;;;;;;;;;5075093;28;20086;-53
2023/05/14 09:03:36;;;;;;;2.38;1.67;;;15.90;99.90;;;;;;5026876;28;20036;-52
2023/05/14 09:06:04;;;;;;;4.25;3.08;;;15.90;99.90;;;;;;5073621;28;20033;-53
2023/05/14 09:08:30;;;;;;;4.93;2.80;;;15.90;99.90;;;;;;5055382;28;20036;-52
2023/05/14 09:10:56;;;;;;;3.55;2.70;;;16.30;99.90;;;;;;5072970;28;20384;-53
2023/05/14 09:13:21;;;;;;;4.53;3.20;;;16.50;99.90;;;;;;5070882;28;20082;-52
2023/05/14 09:15:48;;;;;;;4.18;2.63;;;16.70;99.90;;;;;;5073562;28;20115;-54
2023/05/14 09:18:14;;;;;;;1.98;1.73;;;17.30;99.90;;;;;;5071812;28;20042;-52
2023/05/14 09:20:40;;;;;;;2.13;1.85;;;16.90;99.90;;;;;;5072442;28;20028;-53
2023/05/14 09:23:06;;;;;;;2.63;1.65;;;16.90;99.90;;;;;;5051202;28;20036;-54
2023/05/14 09:25:32;;;;;;;5.22;2.88;;;16.90;99.90;;;;;;5071937;28;20047;-54
2023/05/14 09:27:58;;;;;;;2.90;2.30;;;16.90;99.90;;;;;;5069392;28;20079;-53
2023/05/14 09:30:25;;;;;;;4.47;1.90;;;17.00;99.90;;;;;;5069177;28;20086;-54
2023/05/14 09:32:53;;;;;;;2.88;1.98;;;16.90;99.90;;;;;;5070729;28;20089;-53
2023/05/14 09:35:23;;;;;;;4.47;2.92;;;17.00;99.90;;;;;;5071500;28;20029;-54
2023/05/14 09:37:54;;;;;;;2.65;2.20;;;16.90;99.90;;;;;;5068614;28;20075;-53
2023/05/14 09:40:21;;;;;;;4.47;2.38;;;16.90;99.90;;;;;;5069553;28;20028;-53
2023/05/14 09:42:48;;;;;;;1.80;1.48;;;16.70;99.90;;;;;;5069117;28;20020;-53
2023/05/14 09:45:14;;;;;;;2.58;2.00;;;16.70;99.90;;;;;;5071971;28;20032;-53
2023/05/14 09:47:40;;;;;;;5.32;2.90;;;16.70;99.90;;;;;;5069775;28;20039;-53
2023/05/14 09:50:07;;;;;;;3.67;2.90;;;16.70;99.90;;;;;;5057457;28;20032;-53
2023/05/14 09:52:33;;;;;;;4.55;1.98;;;16.80;99.90;;;;;;5020833;28;20187;-53
2023/05/14 09:55:00;;;;;;;4.38;2.78;;;16.70;99.90;;;;;;4992344;28;20052;-52
2023/05/14 09:57:26;;;;;;;2.38;2.17;;;16.80;99.90;;;;;;5024485;28;20053;-53
2023/05/14 09:59:52;;;;;;;2.60;2.10;;;16.80;99.90;;;;;;5017382;28;20433;-52
2023/05/14 10:02:36;;;;;;;3.00;2.40;;;16.70;99.90;;;;;;5021881;28;20046;-54
2023/05/14 10:05:04;;;;;;;5.13;3.22;;;16.80;99.90;;;;;;5025624;28;20134;-53
2023/05/14 10:07:42;;;;;;;1.92;1.48;;;17.10;99.90;;;;;;5023032;28;20037;-49
2023/05/14 10:10:12;;;;;;;3.78;2.03;;;17.20;99.90;;;;;;5023113;28;20493;-50
2023/05/14 10:12:39;;;;;;;3.67;2.22;;;;;;;;;;4990090;28;20038;-47
2023/05/14 10:15:15;;;;;;;2.00;1.55;;;18.80;99.90;;;;;;5016627;28;20037;-50
2023/05/14 10:17:44;;;;;;;1.80;1.70;;;;;;;;;;5023321;28;21027;-51
2023/05/14 10:20:12;;;;;;;2.35;2.15;;;;;;;;;;5025778;28;20162;-49
2023/05/14 10:22:38;;;;;;;4.25;2.40;;;19.10;99.90;;;;;;5028641;28;20029;-49
2023/05/14 10:25:04;;;;;;;4.07;2.80;;;19.30;99.90;;;;;;5071078;28;20125;-49
2023/05/14 10:27:30;;;;;;;3.33;2.70;;;;;;;;;;4998146;28;20041;-49
2023/05/14 10:29:56;;;;;;;2.75;2.00;;;19.70;99.90;;;;;;5071928;28;20365;-49
2023/05/14 10:32:24;;;;;;;2.90;2.28;;;19.80;99.90;;;;;;5034161;28;20043;-49
2023/05/14 10:34:53;;;;;;;2.40;1.45;;;20.30;99.90;;;;;;5067688;28;20400;-49
2023/05/14 10:37:24;;;;;;;3.05;2.42;;;19.90;99.90;;;;;;5034236;28;20079;-49
2023/05/14 10:40:08;;;;;;;3.60;2.43;;;;;;;;;;5070814;28;20452;-49
2023/05/14 10:42:39;;;;;;;3.50;2.45;;;20.40;99.90;;;;;;5033775;28;20519;-49
2023/05/14 10:45:11;;;;;;;4.18;2.88;;;20.10;99.90;;;;;;5048854;28;20045;-48
2023/05/14 10:47:38;;;;;;;2.28;1.92;;;19.80;99.90;;;;;;5070227;28;20032;-49
2023/05/14 10:50:06;;;;;;;3.38;1.70;;;19.40;99.90;;;;;;5068023;28;20028;-49
2023/05/14 10:52:33;;;;;;;3.13;2.08;;;19.60;99.90;;;;;;5075482;28;20036;-49
2023/05/14 10:55:01;;;;;;;3.50;1.60;;;19.60;99.90;;;;;;5070272;28;20036;-49
2023/05/14 10:57:29;;;;;;;1.92;1.38;;;19.50;99.90;;;;;;5070274;28;20127;-50
2023/05/14 10:59:57;;;;;;;3.38;1.98;;;19.40;99.90;;;;;;5067236;28;20348;-49
2023/05/14 11:02:24;;;;;;;1.55;0.85;;;19.60;99.90;;;;;;5069827;28;20450;-49
2023/05/14 11:05:12;;;;;;;2.88;1.58;;;19.50;99.90;;;;;;5070370;28;20035;-49
2023/05/14 11:07:43;;;;;;;2.60;1.80;;;19.40;99.90;;;;;;5068101;28;20056;-49
2023/05/14 11:10:19;;;;;;;1.70;1.13;;;19.70;99.90;;;;;;5071732;28;20107;-50
2023/05/14 11:12:47;;;;;;;1.98;1.33;;;19.60;99.90;;;;;;5069382;28;20384;-49
2023/05/14 11:15:20;;;;;;;3.97;2.00;;;19.80;99.90;;;;;;5066777;28;20021;-50
2023/05/14 11:17:47;;;;;;;2.38;1.58;;;20.00;99.90;;;;;;5069719;28;20036;-49
2023/05/14 11:20:14;;;;;;;4.38;2.10;;;20.10;99.90;;;;;;5069108;28;20484;-49
2023/05/14 11:22:41;;;;;;;1.98;1.60;;;;;;;;;;5067076;28;20028;-49
2023/05/14 11:25:08;;;;;;;2.88;2.08;;;20.40;99.90;;;;;;5067953;28;20098;-49
2023/05/14 11:27:35;;;;;;;2.15;1.65;;;;;;;;;;5038809;28;20074;-49
2023/05/14 11:30:01;;;;;;;1.60;1.50;;;20.30;99.90;;;;;;5070973;28;20028;-50
2023/05/14 11:32:27;;;;;;;2.45;2.00;;;20.50;99.90;;;;;;5070266;28;20543;-49
2023/05/14 11:34:53;;;;;;;5.20;1.70;;;20.20;99.90;;;;;;5065981;28;20100;-49
2023/05/14 11:37:19;;;;;;;4.22;2.10;;;20.20;99.90;;;;;;5070654;28;20124;-49
2023/05/14 11:39:49;;;;;;;2.70;2.00;;;20.10;99.90;;;;;;5063526;28;20066;-49
2023/05/14 11:42:17;;;;;;;1.50;1.40;;;20.00;99.90;;;;;;5071817;28;20028;-50
2023/05/14 11:44:47;;;;;;;2.17;1.20;;;20.00;99.90;;;;;;5067289;28;20097;-49
2023/05/14 11:47:14;;;;;;;0.80;0.80;;;19.80;99.90;;;;;;5069452;28;20074;-49
2023/05/14 11:49:39;;;;;;;2.28;1.83;;;19.60;99.90;;;;;;5070713;28;20028;-50
2023/05/14 11:52:09;;;;;;;1.00;0.80;;;19.60;99.90;;;;;;5051557;28;20056;-49
2023/05/14 11:54:34;;;;;;;3.72;2.42;;;19.50;99.90;;;;;;5069968;28;20488;-50
2023/05/14 11:57:10;;;;;;;1.55;1.20;;;19.90;99.90;;;;;;5068415;28;20028;-50
2023/05/14 11:59:36;;;;;;;4.97;2.00;;;19.80;99.90;;;;;;5070673;28;20025;-49
2023/05/14 12:02:04;;;;;;;2.55;1.92;;;19.90;99.90;;;;;;5066988;28;20475;-49
2023/05/14 12:04:30;;;;;;;1.13;1.00;;;20.20;99.90;;;;;;5063482;28;20025;-50
2023/05/14 12:06:58;;;;;;;2.47;1.90;;;19.90;99.90;;;;;;5065701;28;20025;-49
2023/05/14 12:09:24;;;;;;;3.33;1.92;;;;;;;;;;5070665;28;20722;-50
2023/05/14 12:11:51;;;;;;;2.15;1.80;;;20.40;99.90;;;;;;5061527;28;20045;-50
2023/05/14 12:14:17;;;;;;;2.58;1.75;;;;;;;;;;5071413;28;20079;-49
2023/05/14 12:16:44;;;;;;;0.95;0.95;;;20.80;99.90;;;;;;5059073;28;20047;-49
2023/05/14 12:19:11;;;;;;;1.40;1.08;;;;;;;;;;5071880;28;20033;-49
2023/05/14 12:21:37;;;;;;;3.70;1.80;;;;;;;;;;5069904;28;20032;-50
2023/05/14 12:24:03;;;;;;;1.83;1.48;;;21.20;99.90;;;;;;5073435;28;20112;-50
2023/05/14 12:26:32;;;;;;;2.60;0.88;;;21.30;99.90;;;;;;5074691;28;20071;-50
2023/05/14 12:29:02;;;;;;;3.35;1.67;;;20.70;99.90;;;;;;5072548;28;20115;-49
2023/05/14 12:31:33;;;;;;;1.65;1.38;;;20.80;99.90;;;;;;5069972;28;20029;-50
2023/05/14 12:33:59;;;;;;;1.95;1.40;;;20.80;99.90;;;;;;5066054;28;20547;-50
2023/05/14 12:49:47;;;;;;;1.35;1.25;;;20.90;99.90;;;;;;5123326;27;20371;-47
2023/05/14 12:52:13;;;;;;;2.33;0.98;;;21.50;99.90;;;;;;5113253;27;20023;-48
2023/05/14 12:54:40;;;;;;;4.82;1.42;;;21.30;99.90;;;;;;5083956;28;20061;-49
2023/05/14 12:57:06;;;;;;;2.60;2.10;;;21.40;99.90;;;;;;5110525;28;20482;-49
2023/05/14 12:59:31;;;;;;;2.58;1.35;;;21.60;99.90;;;;;;5090617;28;20036;-47
2023/05/14 13:01:57;;;;;;;2.50;1.42;;;21.40;99.90;;;;;;5098043;28;20097;-48
2023/05/14 13:04:22;;;;;;;2.78;1.80;;;21.30;99.90;;;;;;5110787;28;20438;-48
2023/05/14 13:06:48;;;;;;;1.50;1.20;;;21.40;99.90;;;;;;5111732;28;20493;-48
2023/05/14 13:09:14;;;;;;;2.92;1.75;;;21.50;99.90;;;;;;5109942;28;20032;-48
2023/05/14 13:11:40;;;;;;;2.45;1.45;;;;;;;;;;5105508;28;20065;-48
2023/05/14 13:14:06;;;;;;;2.40;1.70;;;22.20;99.90;;;;;;5093864;28;20046;-48